TimeEST,TemperatureF,Dew PointF,Humidity,Sea Level PressureIn,VisibilityMPH,Wind Direction,Wind SpeedMPH,Gust SpeedMPH,PrecipitationIn,Events,Conditions,WindDirDegrees,DateUTC
12:03 AM,46.4,44.6,93,30.22,4.0,North,11.5,-,0.00,,Light Drizzle,360,2012-11-16 05:03:00
12:56 AM,46.0,44.1,93,30.22,5.0,North,10.4,-,0.00,,Light Drizzle,360,2012-11-16 05:56:00
1:56 AM,46.0,44.1,93,30.22,5.0,North,11.5,-,0.00,,Light Drizzle,10,2012-11-16 06:56:00
2:56 AM,46.0,44.1,93,30.22,7.0,North,9.2,-,0.00,,Overcast,10,2012-11-16 07:56:00
3:56 AM,46.9,44.1,90,30.21,7.0,North,8.1,-,N/A,,Overcast,10,2012-11-16 08:56:00
4:56 AM,46.9,45.0,93,30.22,7.0,North,5.8,-,N/A,,Overcast,360,2012-11-16 09:56:00
5:56 AM,46.0,44.1,93,30.22,7.0,NNE,10.4,-,N/A,,Overcast,30,2012-11-16 10:56:00
6:56 AM,46.0,44.1,93,30.25,8.0,North,9.2,-,N/A,,Overcast,10,2012-11-16 11:56:00
7:56 AM,46.9,45.0,93,30.25,6.0,NNE,8.1,-,N/A,,Overcast,20,2012-11-16 12:56:00
8:56 AM,46.9,45.0,93,30.27,8.0,NNE,8.1,-,N/A,,Overcast,30,2012-11-16 13:56:00
9:22 AM,48.2,44.6,87,30.27,8.0,NNE,10.4,-,N/A,,Overcast,30,2012-11-16 14:22:00
9:56 AM,48.9,45.0,86,30.29,10.0,NNE,10.4,-,N/A,,Overcast,20,2012-11-16 14:56:00
10:25 AM,50.0,44.6,82,30.29,10.0,NE,9.2,-,N/A,,Overcast,40,2012-11-16 15:25:00
10:56 AM,50.0,45.0,83,30.28,10.0,NE,12.7,-,N/A,,Overcast,40,2012-11-16 15:56:00
11:56 AM,51.1,46.0,83,30.27,10.0,NNE,11.5,-,N/A,,Overcast,30,2012-11-16 16:56:00
12:25 PM,51.8,44.6,76,30.27,10.0,North,8.1,-,N/A,,Overcast,360,2012-11-16 17:25:00
12:56 PM,52.0,45.0,77,30.27,10.0,North,5.8,-,N/A,,Overcast,10,2012-11-16 17:56:00
1:56 PM,53.1,45.0,74,30.25,10.0,NNE,5.8,-,N/A,,Overcast,20,2012-11-16 18:56:00
2:56 PM,54.0,46.0,75,30.25,10.0,North,6.9,-,N/A,,Overcast,10,2012-11-16 19:56:00
3:56 PM,53.1,46.0,77,30.25,10.0,NNE,4.6,-,N/A,,Overcast,20,2012-11-16 20:56:00
4:50 PM,53.6,46.4,77,30.25,10.0,Calm,Calm,-,N/A,,Overcast,0,2012-11-16 21:50:00
4:56 PM,54.0,46.9,77,30.25,10.0,Calm,Calm,-,N/A,,Overcast,0,2012-11-16 21:56:00
5:56 PM,53.1,46.9,80,30.27,10.0,Calm,Calm,-,N/A,,Overcast,0,2012-11-16 22:56:00
6:56 PM,53.1,48.0,83,30.28,10.0,NNW,3.5,-,N/A,,Overcast,340,2012-11-16 23:56:00
7:56 PM,53.1,48.9,86,30.28,10.0,North,4.6,-,N/A,,Overcast,350,2012-11-17 00:56:00
8:56 PM,53.1,46.9,80,30.29,10.0,NNE,6.9,-,N/A,,Mostly Cloudy,20,2012-11-17 01:56:00
9:56 PM,51.1,45.0,80,30.31,10.0,NNE,11.5,-,N/A,,Mostly Cloudy,30,2012-11-17 02:56:00
10:56 PM,52.0,44.1,74,30.31,10.0,NE,8.1,-,N/A,,Mostly Cloudy,40,2012-11-17 03:56:00
11:56 PM,50.0,42.1,74,30.30,10.0,NNE,9.2,-,N/A,,Partly Cloudy,30,2012-11-17 04:56:00